NCAR-RAP Real-Time Weather Data

Output produced by METARs form (08 May 2021  02:19 UTC)
found at http://weather.rap.ucar.edu/surface/
 
KGNV 080153Z 31003KT 10SM CLR 14/09 A3007 RMK AO2 SLP181 T01440089
KGNV 080053Z 32003KT 10SM CLR 18/08 A3004 RMK AO2 SLP171 T01780083
KGNV 072353Z 31004KT 10SM CLR 23/06 A3002 RMK AO2 SLP163 T02280056 10267 20228 53003
KGNV 072253Z 33006KT 10SM CLR 26/05 A3001 RMK AO2 SLP161 T02560050
KGNV 072153Z 30009G16KT 260V330 10SM CLR 26/04 A3001 RMK AO2 SLP160 T02610044
KGNV 072053Z VRB06G18KT 10SM CLR 27/06 A3001 RMK AO2 SLP160 T02670056 57017
KGNV 071953Z 34010KT 10SM CLR 27/06 A3002 RMK AO2 SLP165 T02670056
KGNV 071853Z 30012G22KT 10SM CLR 27/06 A3004 RMK AO2 SLP172 T02670056
KGNV 071753Z 27011KT 10SM CLR 26/06 A3006 RMK AO2 SLP176 T02610061 10261 20000 58010
KGNV 071653Z 32014G22KT 10SM CLR 24/06 A3008 RMK AO2 SLP183 T02390061 $
KGNV 071553Z 33012G18KT 10SM CLR 00/ A3008 RMK AO2 SLP188 T0000 $
KGNV 071453Z FEW001 23/08 A3009 RMK AO2 SLP187 T02280083 51009 $
KGNV 071353Z 36004G15KT 10SM CLR 21/09 A3009 RMK AO2 SLP186 T02110094
KGNV 071253Z 32005KT 10SM CLR 19/12 A3008 RMK AO2 SLP183 T01940117
KGNV 071153Z 31004KT 10SM CLR 17/11 A3006 RMK AO2 SLP178 70028 T01670111 10194 20133 53013
KGNV 071053Z 29003KT 10SM CLR 13/11 A3004 RMK AO2 SLP171 T01330111
KGNV 071042Z 30003KT 10SM CLR 14/11 A3004 RMK AO2 T01390111